Time;durP1;ratioP1;P1;durP2;ratioP2;P2;SDS_P1;SDS_P2;PMS_P1;PMS_P2;Temp;Humidity;BMP_temperature;BMP_pressure;BME280_temperature;BME280_humidity;BME280_pressure;Samples;Min_cycle;Max_cycle;Signal;HPM_P1;HPM_P2
2022/03/17 00:01:16;;;;;;;294.03;280.97;;;11.40;99.90;;;;;;4378055;32;20140;-62
2022/03/17 00:03:43;;;;;;;272.63;260.83;;;11.30;99.90;;;;;;4393828;32;20141;-62
2022/03/17 00:06:12;;;;;;;286.40;273.87;;;11.30;99.90;;;;;;4393395;32;20140;-62
2022/03/17 00:08:39;;;;;;;283.10;270.70;;;11.30;99.90;;;;;;4392447;32;20152;-63
2022/03/17 00:11:10;;;;;;;276.50;264.57;;;11.30;99.90;;;;;;4392945;32;20137;-62
2022/03/17 00:13:38;;;;;;;271.50;259.67;;;11.40;99.90;;;;;;4392699;32;20132;-62
2022/03/17 00:16:05;;;;;;;282.57;270.47;;;11.50;99.90;;;;;;4392912;32;20158;-63
2022/03/17 00:18:32;;;;;;;291.70;278.80;;;11.40;99.90;;;;;;4392342;32;20205;-62
2022/03/17 00:20:59;;;;;;;301.03;287.87;;;11.50;99.90;;;;;;4392625;32;20198;-63
2022/03/17 00:23:27;;;;;;;295.20;282.67;;;11.50;99.90;;;;;;4392999;32;20167;-63
2022/03/17 00:26:22;;;;;;;289.27;276.43;;;11.40;99.90;;;;;;4392032;32;20140;-62
2022/03/17 00:28:54;;;;;;;291.57;279.10;;;11.40;99.90;;;;;;4391825;32;20164;-62
2022/03/17 00:31:27;;;;;;;273.67;261.60;;;11.20;99.90;;;;;;4392097;32;20163;-62
2022/03/17 00:34:00;;;;;;;270.23;258.30;;;11.10;99.90;;;;;;4392855;32;20144;-63
2022/03/17 00:36:27;;;;;;;258.47;247.37;;;11.20;99.90;;;;;;4393259;32;20507;-63
2022/03/17 00:38:53;;;;;;;291.27;278.60;;;11.10;99.90;;;;;;4392622;32;20179;-62
2022/03/17 00:41:22;;;;;;;275.07;263.00;;;11.20;99.90;;;;;;4392740;32;20579;-62
2022/03/17 00:43:50;;;;;;;257.30;246.40;;;11.20;99.90;;;;;;4391666;32;20152;-62
2022/03/17 00:46:17;;;;;;;270.00;258.33;;;11.20;99.90;;;;;;4391903;32;20143;-62
2022/03/17 00:48:44;;;;;;;265.73;254.00;;;11.20;99.90;;;;;;4392418;32;20145;-62
2022/03/17 00:51:15;;;;;;;277.27;265.00;;;11.20;99.90;;;;;;4392462;32;20209;-62
2022/03/17 00:53:42;;;;;;;266.50;254.90;;;11.30;99.90;;;;;;4392320;32;20164;-63
2022/03/17 00:56:09;;;;;;;253.07;242.10;;;11.40;99.90;;;;;;4392367;32;20128;-63
2022/03/17 00:58:37;;;;;;;278.07;265.83;;;11.50;99.90;;;;;;4392178;32;20230;-63
2022/03/17 01:01:05;;;;;;;270.47;258.90;;;11.50;99.90;;;;;;4393486;32;20194;-63
2022/03/17 01:03:32;;;;;;;262.10;250.70;;;11.60;99.90;;;;;;4392218;32;20190;-62
2022/03/17 01:06:00;;;;;;;256.70;245.77;;;11.50;99.90;;;;;;4392888;32;20154;-63
2022/03/17 01:08:27;;;;;;;271.43;259.63;;;11.50;99.90;;;;;;4392559;32;20149;-63
2022/03/17 01:10:54;;;;;;;262.13;250.70;;;11.60;99.90;;;;;;4392941;32;20140;-63
2022/03/17 01:13:21;;;;;;;265.83;254.23;;;11.60;99.90;;;;;;4391786;32;20159;-63
2022/03/17 01:15:48;;;;;;;264.93;253.37;;;11.60;99.90;;;;;;4385033;32;20579;-63
2022/03/17 01:18:16;;;;;;;248.67;237.90;;;11.60;99.90;;;;;;4391582;32;20569;-62
2022/03/17 01:20:44;;;;;;;246.87;235.77;;;11.70;99.90;;;;;;4392072;32;20155;-63
2022/03/17 01:23:13;;;;;;;257.30;246.07;;;11.70;99.90;;;;;;4391894;32;20212;-63
2022/03/17 01:25:40;;;;;;;267.23;255.73;;;11.70;99.90;;;;;;4391993;32;20159;-63
2022/03/17 01:28:09;;;;;;;267.33;255.37;;;11.70;99.90;;;;;;4391736;32;20179;-63
2022/03/17 01:30:37;;;;;;;257.60;246.07;;;11.60;99.90;;;;;;4391893;32;20211;-62
2022/03/17 01:33:04;;;;;;;262.70;251.30;;;11.60;99.90;;;;;;4391702;32;20140;-63
2022/03/17 01:35:32;;;;;;;271.60;259.83;;;11.70;99.90;;;;;;4392896;32;20140;-62
2022/03/17 01:37:59;;;;;;;258.80;247.63;;;11.70;99.90;;;;;;4388569;32;20449;-62
2022/03/17 01:40:26;;;;;;;276.67;264.63;;;11.70;99.90;;;;;;4377879;32;20198;-62
2022/03/17 01:42:53;;;;;;;276.90;264.80;;;11.70;99.90;;;;;;4376706;32;20164;-62
2022/03/17 01:45:20;;;;;;;286.37;274.07;;;11.70;99.90;;;;;;4376678;32;20162;-62
2022/03/17 01:47:48;;;;;;;294.60;281.83;;;11.70;99.90;;;;;;4384425;32;20178;-64
2022/03/17 01:50:18;;;;;;;291.27;278.40;;;11.80;99.90;;;;;;4391302;32;20438;-63
2022/03/17 01:52:46;;;;;;;298.53;285.40;;;11.70;99.90;;;;;;4391424;32;20125;-62
2022/03/17 01:55:17;;;;;;;300.73;287.83;;;11.70;99.90;;;;;;4392313;32;20139;-62
2022/03/17 01:57:44;;;;;;;297.50;284.63;;;11.70;99.90;;;;;;4391004;32;20140;-62
2022/03/17 02:00:17;;;;;;;314.37;300.67;;;11.70;99.90;;;;;;4391175;32;20156;-63
2022/03/17 02:02:44;;;;;;;298.90;285.73;;;11.80;99.90;;;;;;4391320;32;20155;-63
2022/03/17 02:05:11;;;;;;;306.97;293.37;;;11.80;99.90;;;;;;4393016;32;20189;-63
2022/03/17 02:07:39;;;;;;;334.10;319.43;;;11.80;99.90;;;;;;4391107;32;20159;-62
2022/03/17 02:10:08;;;;;;;329.20;314.67;;;11.80;99.90;;;;;;4391166;32;20148;-62
2022/03/17 02:15:20;;;;;;;323.93;309.70;;;11.80;99.90;;;;;;4392109;32;20151;-62
2022/03/17 02:17:47;;;;;;;326.07;311.97;;;11.80;99.90;;;;;;4391412;32;20133;-62
2022/03/17 02:20:17;;;;;;;327.43;312.93;;;11.80;99.90;;;;;;4391590;32;20160;-62
2022/03/17 02:22:45;;;;;;;348.90;333.50;;;11.70;99.90;;;;;;4391266;32;20154;-62
2022/03/17 02:28:02;;;;;;;322.57;308.43;;;11.40;99.90;;;;;;4391423;32;20163;-62
2022/03/17 02:30:29;;;;;;;297.60;284.67;;;11.10;99.90;;;;;;4392582;32;20148;-62
2022/03/17 02:33:01;;;;;;;303.73;290.40;;;11.00;99.90;;;;;;4390827;32;20160;-62
2022/03/17 02:35:32;;;;;;;313.43;299.73;;;10.90;99.90;;;;;;4390551;32;20148;-62
2022/03/17 02:38:02;;;;;;;307.03;293.83;;;10.90;99.90;;;;;;4390913;32;20128;-62
2022/03/17 02:40:31;;;;;;;340.23;325.47;;;10.80;99.90;;;;;;4391270;32;20594;-62
2022/03/17 02:42:58;;;;;;;354.53;339.07;;;10.80;99.90;;;;;;4390974;32;20141;-63
2022/03/17 02:45:26;;;;;;;385.50;368.53;;;10.70;99.90;;;;;;4390535;32;20162;-63
2022/03/17 02:47:53;;;;;;;368.90;352.30;;;10.60;99.90;;;;;;4389507;32;20230;-62
2022/03/17 02:50:21;;;;;;;366.80;350.80;;;10.60;99.90;;;;;;4382505;32;20242;-62
2022/03/17 02:52:48;;;;;;;382.43;365.57;;;10.60;99.90;;;;;;4390757;32;20137;-64
2022/03/17 02:55:17;;;;;;;369.07;352.73;;;10.60;99.90;;;;;;4391607;32;20186;-63
2022/03/17 02:57:46;;;;;;;371.63;355.00;;;10.60;99.90;;;;;;4390710;32;20579;-63
2022/03/17 03:00:14;;;;;;;373.23;357.00;;;10.60;99.90;;;;;;4390831;32;20191;-62
2022/03/17 03:02:42;;;;;;;363.90;348.37;;;10.50;99.90;;;;;;4390622;32;20211;-63
2022/03/17 03:05:12;;;;;;;353.07;338.17;;;10.40;99.90;;;;;;4390408;32;20189;-62
2022/03/17 03:07:39;;;;;;;327.53;314.10;;;10.30;99.90;;;;;;4390101;32;20153;-62
2022/03/17 03:10:07;;;;;;;338.10;324.47;;;10.20;99.90;;;;;;4390591;32;20130;-63
2022/03/17 03:12:34;;;;;;;293.37;281.43;;;9.80;99.90;;;;;;4390768;32;20144;-61
2022/03/17 03:15:03;;;;;;;281.30;269.97;;;9.50;99.90;;;;;;4390420;32;20139;-62
2022/03/17 03:17:30;;;;;;;291.03;279.37;;;9.30;99.90;;;;;;4389492;32;20157;-62
2022/03/17 03:19:57;;;;;;;267.30;256.53;;;9.30;99.90;;;;;;4390527;32;20143;-63
2022/03/17 03:22:28;;;;;;;269.03;258.20;;;9.20;99.90;;;;;;4390474;32;20144;-62
2022/03/17 03:24:57;;;;;;;274.30;262.83;;;9.00;99.90;;;;;;4390426;32;20582;-62
2022/03/17 03:27:46;;;;;;;299.77;287.30;;;9.00;99.90;;;;;;4390271;32;20146;-61
2022/03/17 03:30:15;;;;;;;260.07;249.63;;;8.90;99.90;;;;;;4391003;32;20177;-61
2022/03/17 03:32:47;;;;;;;271.70;260.53;;;8.80;99.90;;;;;;4390247;32;20142;-62
2022/03/17 03:38:11;;;;;;;272.60;261.50;;;8.80;99.90;;;;;;4375384;32;20167;-62
2022/03/17 03:40:43;;;;;;;246.13;236.27;;;8.80;99.90;;;;;;4375391;32;20167;-63
2022/03/17 03:43:22;;;;;;;234.60;225.33;;;8.70;99.90;;;;;;4375848;32;20174;-62
2022/03/17 03:45:51;;;;;;;228.47;219.53;;;8.80;99.90;;;;;;4386090;32;20141;-63
2022/03/17 03:48:18;;;;;;;248.67;238.87;;;8.80;99.90;;;;;;4390249;32;20468;-62
2022/03/17 03:50:46;;;;;;;224.63;215.83;;;8.80;99.90;;;;;;4390216;32;20132;-62
2022/03/17 03:53:13;;;;;;;233.53;224.27;;;8.80;99.90;;;;;;4390632;32;20214;-62
2022/03/17 03:55:42;;;;;;;218.77;210.07;;;8.70;99.90;;;;;;4390613;32;20144;-61
2022/03/17 03:58:11;;;;;;;225.23;216.27;;;8.70;99.90;;;;;;4387606;32;20153;-62
2022/03/17 04:00:45;;;;;;;218.67;210.07;;;8.80;99.90;;;;;;4383225;32;20579;-60
2022/03/17 04:03:15;;;;;;;221.40;212.67;;;8.60;99.90;;;;;;4389875;32;20549;-61
2022/03/17 04:05:42;;;;;;;221.17;212.43;;;8.70;99.90;;;;;;4389705;32;20473;-62
2022/03/17 04:08:15;;;;;;;214.40;205.83;;;8.70;99.90;;;;;;4390321;32;20214;-61
2022/03/17 04:10:42;;;;;;;217.03;208.47;;;8.80;99.90;;;;;;4391014;32;20495;-62
2022/03/17 04:13:09;;;;;;;219.60;210.97;;;8.80;99.90;;;;;;4390748;32;20139;-61
2022/03/17 04:15:36;;;;;;;212.03;203.70;;;8.70;99.90;;;;;;4389843;32;20187;-61
2022/03/17 04:18:04;;;;;;;213.93;205.40;;;8.70;99.90;;;;;;4391542;32;20247;-62
2022/03/17 04:20:32;;;;;;;217.43;208.83;;;8.70;99.90;;;;;;4392889;32;20148;-62
2022/03/17 04:22:59;;;;;;;215.93;207.37;;;8.80;99.90;;;;;;4393658;32;20138;-62
2022/03/17 04:25:26;;;;;;;215.83;207.30;;;8.80;99.90;;;;;;4392191;32;20206;-62
2022/03/17 04:27:53;;;;;;;216.87;208.37;;;8.80;99.90;;;;;;4392436;32;20209;-62
2022/03/17 04:30:20;;;;;;;213.27;204.93;;;8.70;99.90;;;;;;4393067;32;20207;-62
2022/03/17 04:32:48;;;;;;;197.13;189.37;;;8.70;99.90;;;;;;4393415;32;20184;-62
2022/03/17 04:35:14;;;;;;;197.00;189.00;;;8.70;99.90;;;;;;4392652;32;20133;-63
2022/03/17 04:37:43;;;;;;;209.03;200.83;;;8.70;99.90;;;;;;4392560;32;20164;-62
2022/03/17 04:40:13;;;;;;;197.07;189.33;;;8.70;99.90;;;;;;4393817;32;20584;-63
2022/03/17 04:42:40;;;;;;;188.00;180.63;;;8.60;99.90;;;;;;4392263;32;20220;-63
2022/03/17 04:45:08;;;;;;;182.07;174.83;;;8.50;99.90;;;;;;4391411;32;20153;-62
2022/03/17 04:47:35;;;;;;;187.00;179.67;;;8.60;99.90;;;;;;4392122;32;20168;-61
2022/03/17 04:50:03;;;;;;;189.27;181.90;;;8.60;99.90;;;;;;4392492;32;20121;-62
2022/03/17 04:55:15;;;;;;;165.93;159.40;;;8.60;99.90;;;;;;4392580;32;20222;-61
2022/03/17 04:57:42;;;;;;;185.03;177.80;;;8.60;99.90;;;;;;4392805;32;20480;-62
2022/03/17 05:00:11;;;;;;;169.33;162.67;;;8.60;99.90;;;;;;4390489;32;20199;-61
2022/03/17 05:02:38;;;;;;;169.93;163.23;;;8.60;99.90;;;;;;4392210;32;20155;-61
2022/03/17 05:05:06;;;;;;;167.27;160.57;;;8.50;99.90;;;;;;4391334;32;20188;-61
2022/03/17 05:07:34;;;;;;;175.97;169.03;;;8.50;99.90;;;;;;4392047;32;20144;-61
2022/03/17 05:10:01;;;;;;;160.00;153.67;;;8.50;99.90;;;;;;4392270;32;20185;-61
2022/03/17 05:12:30;;;;;;;163.93;157.53;;;8.50;99.90;;;;;;4392203;32;20224;-61
2022/03/17 05:14:57;;;;;;;165.83;159.17;;;8.50;99.90;;;;;;4391747;32;20148;-61
2022/03/17 05:17:23;;;;;;;164.30;157.87;;;8.40;99.90;;;;;;4390868;32;20148;-62
2022/03/17 05:19:50;;;;;;;173.40;166.67;;;8.40;99.90;;;;;;4392162;32;20191;-61
2022/03/17 05:22:19;;;;;;;160.23;153.97;;;8.40;99.90;;;;;;4391927;32;20142;-60
2022/03/17 05:24:46;;;;;;;155.37;149.30;;;8.40;99.90;;;;;;4392301;32;20156;-61
2022/03/17 05:27:13;;;;;;;156.73;150.60;;;8.30;99.90;;;;;;4391458;32;20144;-61
2022/03/17 05:29:44;;;;;;;148.97;142.57;;;8.40;99.90;;;;;;4392659;32;20144;-61
2022/03/17 05:32:11;;;;;;;149.13;143.33;;;8.40;99.90;;;;;;4391910;32;20204;-61
2022/03/17 05:34:38;;;;;;;164.63;158.17;;;8.30;99.90;;;;;;4391694;32;20140;-61
2022/03/17 05:37:05;;;;;;;158.23;152.07;;;8.20;99.90;;;;;;4391615;32;20285;-62
2022/03/17 05:39:34;;;;;;;161.23;154.93;;;8.10;99.90;;;;;;4392010;32;20137;-61
2022/03/17 05:42:01;;;;;;;152.07;146.17;;;8.00;99.90;;;;;;4391684;32;20455;-61
2022/03/17 05:44:28;;;;;;;154.50;148.47;;;8.00;99.90;;;;;;4392192;32;20142;-61
2022/03/17 05:46:56;;;;;;;151.60;145.63;;;7.90;99.90;;;;;;4391028;32;20533;-62
2022/03/17 05:49:24;;;;;;;149.40;143.50;;;7.80;99.90;;;;;;4391091;32;20141;-61
2022/03/17 05:51:51;;;;;;;145.40;139.70;;;7.90;99.90;;;;;;4392629;32;20141;-62
2022/03/17 05:54:17;;;;;;;160.13;153.90;;;7.90;99.90;;;;;;4391512;32;20155;-63
2022/03/17 05:56:44;;;;;;;159.33;153.03;;;7.80;99.90;;;;;;4390925;32;20136;-62
2022/03/17 05:59:11;;;;;;;156.10;149.80;;;7.80;99.90;;;;;;4391346;32;20141;-63
2022/03/17 06:01:38;;;;;;;148.90;143.07;;;7.80;99.90;;;;;;4391489;32;20172;-62
2022/03/17 06:04:06;;;;;;;153.33;147.30;;;7.80;99.90;;;;;;4391795;32;20203;-62
2022/03/17 06:06:33;;;;;;;150.87;145.07;;;7.90;99.90;;;;;;4391308;32;20167;-63
2022/03/17 06:09:00;;;;;;;151.07;145.10;;;7.90;99.90;;;;;;4391335;32;20137;-63
2022/03/17 06:11:28;;;;;;;151.77;145.87;;;7.90;99.90;;;;;;4392311;32;20141;-62
2022/03/17 06:13:56;;;;;;;152.97;147.03;;;8.00;99.90;;;;;;4389675;32;20266;-62
2022/03/17 06:16:23;;;;;;;139.07;133.63;;;8.00;99.90;;;;;;4390623;32;20152;-61
2022/03/17 06:18:50;;;;;;;143.93;138.13;;;8.10;99.90;;;;;;4390156;32;20633;-63
2022/03/17 06:21:19;;;;;;;143.50;137.90;;;8.10;99.90;;;;;;4388543;32;20557;-62
2022/03/17 06:23:46;;;;;;;146.20;140.50;;;8.10;99.90;;;;;;4389902;32;20171;-63
2022/03/17 06:26:16;;;;;;;148.07;142.23;;;8.10;99.90;;;;;;4390508;32;20191;-64
2022/03/17 06:28:45;;;;;;;146.23;140.50;;;8.20;99.90;;;;;;4390684;32;20199;-64
2022/03/17 06:31:13;;;;;;;135.83;130.47;;;8.20;99.90;;;;;;4389502;32;20168;-64
2022/03/17 06:33:40;;;;;;;143.20;137.63;;;8.20;99.90;;;;;;4390811;32;20870;-62
2022/03/17 06:36:10;;;;;;;142.40;136.83;;;8.30;99.90;;;;;;4389770;32;20472;-62
2022/03/17 06:38:40;;;;;;;142.33;136.57;;;8.30;99.90;;;;;;4390799;32;20586;-62
2022/03/17 06:41:07;;;;;;;133.53;128.30;;;8.20;99.90;;;;;;4387503;32;20167;-62
2022/03/17 06:43:34;;;;;;;143.53;137.77;;;8.20;99.90;;;;;;4391006;32;20167;-62
2022/03/17 06:46:01;;;;;;;160.17;153.93;;;8.30;99.90;;;;;;4389189;32;20288;-63
2022/03/17 06:48:28;;;;;;;142.37;136.77;;;8.40;99.90;;;;;;4390343;32;20195;-63
2022/03/17 06:51:06;;;;;;;133.57;128.27;;;8.40;99.90;;;;;;4388994;32;20225;-62
2022/03/17 06:53:36;;;;;;;133.00;127.83;;;8.20;99.90;;;;;;4389198;32;20256;-62
2022/03/17 06:56:07;;;;;;;134.40;129.13;;;8.30;99.90;;;;;;4388593;32;20150;-62
2022/03/17 06:58:34;;;;;;;134.60;129.37;;;8.40;99.90;;;;;;4388861;32;20211;-62
2022/03/17 07:01:08;;;;;;;128.07;122.77;;;8.30;99.90;;;;;;4387203;32;20202;-64
2022/03/17 07:03:44;;;;;;;141.90;136.40;;;8.30;99.90;;;;;;4390154;32;20575;-62
2022/03/17 07:06:11;;;;;;;125.27;120.20;;;8.30;99.90;;;;;;4387657;32;20157;-63
2022/03/17 07:08:42;;;;;;;136.77;131.40;;;8.40;99.90;;;;;;4388473;32;20153;-63
2022/03/17 07:11:20;;;;;;;126.10;121.17;;;8.60;99.90;;;;;;4388764;32;20153;-62
2022/03/17 07:14:01;;;;;;;125.80;120.90;;;8.60;99.90;;;;;;4388327;32;20200;-62
2022/03/17 07:16:40;;;;;;;120.57;115.87;;;8.60;99.90;;;;;;4386377;32;20178;-62
2022/03/17 07:19:13;;;;;;;120.30;115.57;;;8.30;99.90;;;;;;4387641;32;20476;-62
2022/03/17 07:21:43;;;;;;;130.50;125.20;;;8.20;99.90;;;;;;4389258;32;20558;-61
2022/03/17 07:24:26;;;;;;;133.57;128.27;;;8.10;99.90;;;;;;4390551;32;20441;-63
2022/03/17 07:27:22;;;;;;;124.57;119.70;;;8.20;99.90;;;;;;4389901;32;20159;-62
2022/03/17 07:29:59;;;;;;;120.33;115.63;;;8.40;99.90;;;;;;4389145;32;20152;-63
2022/03/17 07:32:29;;;;;;;117.37;112.57;;;8.40;99.90;;;;;;4388634;32;20136;-63
2022/03/17 07:34:56;;;;;;;129.47;124.43;;;8.40;99.90;;;;;;4375421;32;20153;-62
2022/03/17 07:37:25;;;;;;;128.40;123.30;;;8.50;99.90;;;;;;4383274;32;20219;-64
2022/03/17 07:39:55;;;;;;;119.77;114.60;;;8.60;99.90;;;;;;4390306;32;20206;-63
2022/03/17 07:42:24;;;;;;;127.47;122.43;;;8.60;99.90;;;;;;4390098;32;20139;-62
2022/03/17 07:44:57;;;;;;;119.53;114.83;;;8.60;99.90;;;;;;4390270;32;20184;-63
2022/03/17 07:47:24;;;;;;;117.77;113.17;;;8.70;99.90;;;;;;4390043;32;20192;-64
2022/03/17 07:49:58;;;;;;;130.30;125.00;;;8.80;99.90;;;;;;4390159;32;20153;-62
2022/03/17 07:52:47;;;;;;;119.90;115.03;;;8.90;99.90;;;;;;4391213;32;20214;-63
2022/03/17 07:55:17;;;;;;;111.53;107.17;;;9.00;99.90;;;;;;4392829;32;20204;-62
2022/03/17 07:57:46;;;;;;;123.43;118.63;;;9.10;99.90;;;;;;4393934;32;20216;-63
2022/03/17 08:00:17;;;;;;;88.93;85.47;;;9.10;99.90;;;;;;3947392;32;14699669;-63
2022/03/17 08:02:45;;;;;;;100.07;96.17;;;9.20;99.90;;;;;;4393063;32;20154;-61
2022/03/17 08:05:20;;;;;;;108.00;103.77;;;9.20;99.90;;;;;;4392898;32;20456;-61
2022/03/17 08:07:52;;;;;;;108.57;104.33;;;9.50;99.90;;;;;;4393071;32;20154;-61
2022/03/17 08:10:24;;;;;;;102.87;98.87;;;9.50;99.90;;;;;;4393832;32;20130;-62
2022/03/17 08:12:58;;;;;;;118.80;114.20;;;9.30;99.90;;;;;;4394184;32;20133;-62
2022/03/17 08:15:29;;;;;;;119.23;114.60;;;9.50;99.90;;;;;;4393197;32;20128;-61
2022/03/17 08:18:12;;;;;;;105.70;101.57;;;9.50;99.90;;;;;;4392968;32;20136;-63
2022/03/17 08:20:52;;;;;;;106.13;101.83;;;9.50;99.90;;;;;;4393179;32;20205;-63
2022/03/17 08:23:22;;;;;;;119.57;114.97;;;9.30;99.90;;;;;;4392855;32;20177;-64
2022/03/17 08:25:52;;;;;;;127.27;122.10;;;9.30;99.90;;;;;;4393216;32;20182;-62
2022/03/17 08:28:27;;;;;;;117.30;112.60;;;9.50;99.90;;;;;;4392751;32;20575;-62
2022/03/17 08:31:02;;;;;;;115.33;110.83;;;9.50;99.90;;;;;;4392833;32;20175;-63
2022/03/17 08:33:34;;;;;;;114.90;110.37;;;9.40;99.90;;;;;;4393068;32;20201;-62
2022/03/17 08:36:14;;;;;;;116.83;112.27;;;9.40;99.90;;;;;;4393076;32;20129;-63
2022/03/17 08:39:17;;;;;;;113.30;108.90;;;9.30;99.90;;;;;;4393532;32;20491;-61
2022/03/17 08:41:57;;;;;;;99.67;95.80;;;9.10;99.90;;;;;;4392696;32;20231;-62
2022/03/17 08:44:28;;;;;;;106.00;101.90;;;9.20;99.90;;;;;;4393099;32;20158;-62
2022/03/17 08:49:50;;;;;;;109.67;105.37;;;9.20;99.90;;;;;;4392805;32;20149;-61
2022/03/17 08:52:19;;;;;;;114.23;109.73;;;9.00;99.90;;;;;;4392365;32;20136;-63
2022/03/17 08:54:46;;;;;;;118.70;114.00;;;9.20;99.90;;;;;;4392089;32;20186;-62
2022/03/17 08:57:14;;;;;;;107.57;103.37;;;9.30;99.90;;;;;;4392419;32;20583;-62
2022/03/17 08:59:54;;;;;;;104.60;100.50;;;9.40;99.90;;;;;;4392709;32;20182;-62
2022/03/17 09:02:30;;;;;;;111.37;107.03;;;9.40;99.90;;;;;;4392284;32;20189;-63
2022/03/17 09:05:11;;;;;;;;;;;;;;;;;;;;;
2022/03/17 09:10:25;;;;;;;102.80;98.77;;;9.70;99.90;;;;;;4392460;32;20199;-62
2022/03/17 09:13:05;;;;;;;108.43;104.20;;;9.60;99.90;;;;;;4392157;32;20142;-62
2022/03/17 09:15:45;;;;;;;109.70;105.20;;;9.50;99.90;;;;;;4392072;32;20137;-62
2022/03/17 09:18:19;;;;;;;109.20;104.93;;;9.80;99.90;;;;;;4392094;32;20514;-63
2022/03/17 09:20:52;;;;;;;114.93;110.43;;;9.90;99.90;;;;;;4392139;32;20560;-61
2022/03/17 09:23:20;;;;;;;120.53;115.73;;;9.70;99.90;;;;;;4392004;32;20170;-63
2022/03/17 09:25:59;;;;;;;123.20;118.27;;;10.10;99.90;;;;;;4392035;32;20207;-62
2022/03/17 09:28:30;;;;;;;119.70;115.00;;;10.30;99.90;;;;;;4392262;32;20148;-65
2022/03/17 09:31:07;;;;;;;121.07;116.30;;;10.40;99.90;;;;;;4391669;32;20143;-63
2022/03/17 09:33:33;;;;;;;124.83;119.97;;;10.50;99.90;;;;;;4391762;32;20143;-62
2022/03/17 09:36:03;;;;;;;116.17;111.67;;;10.90;99.90;;;;;;4391698;32;20147;-65
2022/03/17 09:38:38;;;;;;;115.60;111.10;;;10.90;99.90;;;;;;4392767;32;20136;-63
2022/03/17 09:41:24;;;;;;;121.53;116.80;;;11.00;99.90;;;;;;4391733;32;20499;-64
2022/03/17 09:43:51;;;;;;;115.37;110.93;;;11.20;99.90;;;;;;4378074;32;20263;-64
2022/03/17 09:46:21;;;;;;;131.10;125.97;;;11.40;99.90;;;;;;4391658;32;20145;-64
2022/03/17 09:48:53;;;;;;;127.33;122.40;;;11.50;99.90;;;;;;4391700;32;20163;-64
2022/03/17 09:51:28;;;;;;;124.47;119.60;;;11.70;99.90;;;;;;4391486;32;20178;-64
2022/03/17 09:54:00;;;;;;;116.43;111.90;;;11.80;99.90;;;;;;4386449;32;20148;-63
2022/03/17 09:56:34;;;;;;;130.17;125.07;;;11.30;99.90;;;;;;4376408;32;20141;-63
2022/03/17 09:59:06;;;;;;;115.97;111.27;;;11.30;99.90;;;;;;4376191;32;20155;-63
2022/03/17 10:01:41;;;;;;;117.07;112.53;;;11.00;99.90;;;;;;4376931;32;20547;-64
2022/03/17 10:04:19;;;;;;;125.53;120.67;;;11.00;99.90;;;;;;4380028;32;20142;-63
2022/03/17 10:06:50;;;;;;;125.30;120.40;;;11.20;99.90;;;;;;4388038;32;20144;-63
2022/03/17 10:09:32;;;;;;;111.80;107.43;;;11.40;99.90;;;;;;4390396;32;20189;-63
2022/03/17 10:12:13;;;;;;;104.73;100.67;;;12.00;99.90;;;;;;4389842;32;20175;-62
2022/03/17 10:14:44;;;;;;;101.83;97.87;;;11.90;99.90;;;;;;4390059;32;20236;-63
2022/03/17 10:17:38;;;;;;;112.33;108.00;;;11.70;99.90;;;;;;4391211;32;20170;-63
2022/03/17 10:20:24;;;;;;;103.73;99.70;;;11.50;99.90;;;;;;4388255;32;20148;-64
2022/03/17 10:23:03;;;;;;;110.43;106.17;;;12.10;99.90;;;;;;4390186;32;20166;-63
2022/03/17 10:25:37;;;;;;;109.93;105.67;;;12.40;99.90;;;;;;4390418;32;20221;-62
2022/03/17 10:28:12;;;;;;;104.93;100.87;;;12.30;99.90;;;;;;4389107;32;20575;-64
2022/03/17 10:30:44;;;;;;;107.77;103.60;;;12.30;99.90;;;;;;4388864;32;20152;-63
2022/03/17 10:33:30;;;;;;;95.13;91.43;;;12.60;99.60;;;;;;4390587;32;20160;-62
2022/03/17 10:36:21;;;;;;;81.07;77.77;;;12.20;98.10;;;;;;4390048;32;20168;-63
2022/03/17 10:38:51;;;;;;;93.10;89.43;;;11.40;99.50;;;;;;4385260;32;20634;-63
2022/03/17 10:41:28;;;;;;;97.80;93.87;;;11.50;99.90;;;;;;4386330;32;20144;-62
2022/03/17 10:44:05;;;;;;;89.83;86.27;;;11.90;99.90;;;;;;4390145;32;20166;-63
2022/03/17 10:46:39;;;;;;;93.20;89.57;;;12.80;99.90;;;;;;4390343;32;20183;-63
2022/03/17 10:49:10;;;;;;;86.17;82.80;;;13.30;98.80;;;;;;4388310;32;20182;-62
2022/03/17 10:51:45;;;;;;;88.80;85.33;;;13.00;98.10;;;;;;4390144;32;20147;-63
2022/03/17 10:54:26;;;;;;;88.20;84.77;;;12.50;98.90;;;;;;4389680;32;20246;-64
2022/03/17 10:57:04;;;;;;;82.27;79.07;;;12.30;99.40;;;;;;4375594;32;20155;-64
2022/03/17 10:59:57;;;;;;;82.13;78.93;;;12.70;97.30;;;;;;4375120;32;20194;-63
2022/03/17 11:02:35;;;;;;;70.43;67.53;;;12.40;97.50;;;;;;4374860;32;20194;-62
2022/03/17 11:05:10;;;;;;;65.70;63.10;;;12.00;97.60;;;;;;4375600;32;20136;-62
2022/03/17 11:07:54;;;;;;;66.57;63.97;;;12.20;98.40;;;;;;4375659;32;20136;-64
2022/03/17 11:10:29;;;;;;;65.43;62.73;;;12.30;97.40;;;;;;4375683;32;20611;-63
2022/03/17 11:13:09;;;;;;;66.43;63.80;;;12.30;97.00;;;;;;4379614;32;20190;-64
2022/03/17 11:15:41;;;;;;;72.20;69.40;;;12.20;97.60;;;;;;4391661;32;20139;-64
2022/03/17 11:18:17;;;;;;;73.13;70.27;;;11.90;98.50;;;;;;4390439;32;20565;-64
2022/03/17 11:21:09;;;;;;;71.17;68.37;;;11.70;98.40;;;;;;4390473;32;20140;-64
2022/03/17 11:23:56;;;;;;;56.77;54.53;;;11.70;98.50;;;;;;4389817;32;20159;-65
2022/03/17 11:26:47;;;;;;;63.43;60.97;;;12.30;97.90;;;;;;4390284;32;20505;-64
2022/03/17 11:29:21;;;;;;;58.57;56.27;;;12.50;97.20;;;;;;4390326;32;20170;-64
2022/03/17 11:32:08;;;;;;;64.03;61.37;;;12.40;97.60;;;;;;4382322;32;20571;-62
2022/03/17 11:34:58;;;;;;;67.73;65.07;;;12.40;96.40;;;;;;4389253;32;20167;-62
2022/03/17 11:37:30;;;;;;;70.23;67.47;;;12.10;97.40;;;;;;4387695;32;20198;-64
2022/03/17 11:40:13;;;;;;;76.87;73.87;;;12.30;98.20;;;;;;4389660;32;20168;-63
2022/03/17 11:43:07;;;;;;;72.27;69.47;;;11.70;98.00;;;;;;4385721;32;20525;-62
2022/03/17 11:45:57;;;;;;;63.83;61.33;;;11.30;98.60;;;;;;4387617;32;20150;-64
2022/03/17 11:48:45;;;;;;;70.97;68.17;;;11.40;98.90;;;;;;4388146;32;20160;-64
2022/03/17 11:51:25;;;;;;;77.80;74.80;;;11.50;99.60;;;;;;4384366;32;20193;-63
2022/03/17 11:54:05;;;;;;;82.30;79.10;;;11.60;99.50;;;;;;4388471;32;20154;-64
2022/03/17 11:56:43;;;;;;;70.63;67.83;;;11.90;99.10;;;;;;4388396;32;20160;-64
2022/03/17 11:59:25;;;;;;;70.83;68.07;;;11.80;98.60;;;;;;4389098;32;20148;-64
2022/03/17 12:01:57;;;;;;;71.27;68.47;;;11.80;98.10;;;;;;4386530;32;20161;-64
2022/03/17 12:08:26;;;;;;;61.53;59.13;;;11.50;98.50;;;;;;4389545;32;20162;-65
2022/03/17 12:11:11;;;;;;;60.27;57.90;;;11.20;98.70;;;;;;4371673;32;20355;-64
2022/03/17 12:13:43;;;;;;;55.13;52.97;;;10.80;98.40;;;;;;4384505;32;20144;-63
2022/03/17 12:16:13;;;;;;;54.80;52.60;;;10.80;99.10;;;;;;4384637;32;20167;-64
2022/03/17 12:19:01;;;;;;;57.97;55.73;;;10.80;99.30;;;;;;4379443;32;20223;-62
2022/03/17 12:22:05;;;;;;;54.57;52.40;;;10.90;99.20;;;;;;4377417;32;20229;-64
2022/03/17 12:24:39;;;;;;;44.63;42.90;;;10.90;98.60;;;;;;4381411;32;20150;-65
2022/03/17 12:27:11;;;;;;;48.67;46.73;;;11.00;98.70;;;;;;4385287;32;20153;-62
2022/03/17 12:29:43;;;;;;;53.37;51.27;;;10.90;98.50;;;;;;4387672;32;20148;-64
2022/03/17 12:32:12;;;;;;;55.97;53.73;;;10.90;99.30;;;;;;4388272;32;20218;-63
2022/03/17 12:34:40;;;;;;;43.03;41.37;;;11.20;99.30;;;;;;4384890;32;20163;-61
2022/03/17 12:37:10;;;;;;;42.17;40.50;;;11.40;97.90;;;;;;4388783;32;20164;-65
2022/03/17 12:39:37;;;;;;;44.83;43.10;;;11.40;98.00;;;;;;4384073;32;20222;-64
2022/03/17 12:42:18;;;;;;;42.00;40.30;;;11.40;97.70;;;;;;4389453;32;20152;-63
2022/03/17 12:44:55;;;;;;;41.67;39.77;;;11.20;97.40;;;;;;4382415;32;20607;-62
2022/03/17 12:47:23;;;;;;;43.43;41.73;;;10.70;98.40;;;;;;4389572;32;20209;-62
2022/03/17 12:49:51;;;;;;;55.23;53.07;;;10.60;98.70;;;;;;4391858;32;20858;-62
2022/03/17 12:52:21;;;;;;;55.30;53.17;;;10.50;99.80;;;;;;4388186;32;20195;-63
2022/03/17 12:54:54;;;;;;;57.10;54.83;;;10.60;99.90;;;;;;4391530;32;20164;-63
2022/03/17 12:57:22;;;;;;;48.40;46.53;;;10.70;99.90;;;;;;4389472;32;20192;-62
2022/03/17 12:59:52;;;;;;;46.90;45.07;;;10.80;98.40;;;;;;4391019;32;20584;-64
2022/03/17 13:02:21;;;;;;;42.97;41.30;;;10.80;97.90;;;;;;4391237;32;20190;-61